Waterville, ME (04903)

4:11 PM EST on January 30, 2015 (GMT -0500)
Mayflower Hill | Change Station
CLOSE
Current Station
Personal Weather Station
Location: Waterville, ME
Elevation: 292 ft
Nearby Weather Stations
Active Advisory: Winter Storm Warning Active Notice: Public Information Statement

Elev 292 ft 44.56 °N, 69.66 °W | Updated 9 seconds ago

Overcast
Overcast
28.5 °F
Feels Like 28 °F
N
2.2
Wind Variable Wind from NNE
Gusts 6.3 mph

Today
High -- | Low -- °F
--% Chance of Precip.
Yesterday
High -- | Low -- °F
Precip. -- in
6:59 AM 4:44 PM
Waxing Gibbous, 85% visible
Pressure 29.68 in
Visibility -9999.0 miles
Clouds Overcast 1200 ft
Windchill 28 °F
Dew Point 27 °F
Humidity 90%
Rainfall -999.00 in
Snow Depth Not available.
UV 0 out of 12
Pollen .10 out of 12
Air Quality Not available.
Flu Activity Not available.
METAR KWVL 302055Z 01008KT OVC012 M03/M05 A2968 RMK AO1 57014

More Conditions Fewer Conditions

Pressure 29.68 in
Visibility -9999.0 miles
Clouds Overcast 1200 ft
Windchill 28 °F
Dew Point 27 °F
Humidity 90%
Rainfall -999.00 in
Snow Depth Not available.
UV 0 out of 12
Pollen .10 out of 12
Air Quality Not available.
Flu Activity Not available.
METAR KWVL 302055Z 01008KT OVC012 M03/M05 A2968 RMK AO1 57014

More Conditions Fewer Conditions

10-Day Weather Forecast

Almanac

Astronomy

Jan. 30, 2015 Rise Set
Actual Time
Civil Twilight
Nautical Twilight
Astronomical Twilight
Moon
Length of Visible Light
Length of Day
Tomorrow will be .
, % of the Moon is Illuminated

Today's Extremes

State Highs State Lows

Community

WunderPhotos

Upload Photos

1,791,895 photos uploaded!

WunderBlogs® & News

Nearby

Air Quality

  Air Quality AQ Index Pollutant
Not available.

Snow Depth

Station Depth Elevation

Earthquake Activity

City Distance Mag. Time & Date
Minimum magnitude displayed is 2.5.

Coastal Water Temperatures

Place Temperature

Nearby Weather Stations